sensor_id;sensor_type;location;lat;lon;timestamp;temperature;humidity
3408;DHT22;1717;50.240;8.406;2023-04-24T00:01:01;14.10;99.90
3408;DHT22;1717;50.240;8.406;2023-04-24T00:03:28;14.10;99.90
3408;DHT22;1717;50.240;8.406;2023-04-24T00:05:55;14.00;99.90
3408;DHT22;1717;50.240;8.406;2023-04-24T00:08:23;14.10;99.90
3408;DHT22;1717;50.240;8.406;2023-04-24T00:10:50;14.10;99.90
3408;DHT22;1717;50.240;8.406;2023-04-24T00:13:18;14.10;99.90
3408;DHT22;1717;50.240;8.406;2023-04-24T00:15:45;14.10;99.90
3408;DHT22;1717;50.240;8.406;2023-04-24T00:18:12;14.10;99.90
3408;DHT22;1717;50.240;8.406;2023-04-24T00:20:38;14.00;99.90
3408;DHT22;1717;50.240;8.406;2023-04-24T00:23:05;14.10;99.90
3408;DHT22;1717;50.240;8.406;2023-04-24T00:25:33;14.10;99.90
3408;DHT22;1717;50.240;8.406;2023-04-24T00:28:00;14.10;99.90
3408;DHT22;1717;50.240;8.406;2023-04-24T00:30:27;13.90;99.90
3408;DHT22;1717;50.240;8.406;2023-04-24T00:32:55;13.80;99.90
3408;DHT22;1717;50.240;8.406;2023-04-24T00:35:21;13.90;99.90
3408;DHT22;1717;50.240;8.406;2023-04-24T00:37:48;13.80;99.90
3408;DHT22;1717;50.240;8.406;2023-04-24T00:40:16;13.80;99.90
3408;DHT22;1717;50.240;8.406;2023-04-24T00:42:44;13.70;99.90
3408;DHT22;1717;50.240;8.406;2023-04-24T00:45:12;13.60;99.90
3408;DHT22;1717;50.240;8.406;2023-04-24T00:47:39;13.70;99.90
3408;DHT22;1717;50.240;8.406;2023-04-24T00:50:08;13.80;99.90
3408;DHT22;1717;50.240;8.406;2023-04-24T00:52:35;13.80;99.90
3408;DHT22;1717;50.240;8.406;2023-04-24T00:55:02;13.70;99.90
3408;DHT22;1717;50.240;8.406;2023-04-24T00:57:30;13.80;99.90
3408;DHT22;1717;50.240;8.406;2023-04-24T00:59:58;13.80;99.90
3408;DHT22;1717;50.240;8.406;2023-04-24T01:02:25;13.80;99.90
3408;DHT22;1717;50.240;8.406;2023-04-24T01:04:52;13.80;99.90
3408;DHT22;1717;50.240;8.406;2023-04-24T01:07:20;13.70;99.90
3408;DHT22;1717;50.240;8.406;2023-04-24T01:09:47;13.70;99.90
3408;DHT22;1717;50.240;8.406;2023-04-24T01:12:16;13.70;99.90
3408;DHT22;1717;50.240;8.406;2023-04-24T01:14:43;13.60;99.90
3408;DHT22;1717;50.240;8.406;2023-04-24T01:17:12;13.60;99.90
3408;DHT22;1717;50.240;8.406;2023-04-24T01:19:39;13.60;99.90
3408;DHT22;1717;50.240;8.406;2023-04-24T01:22:11;13.50;99.90
3408;DHT22;1717;50.240;8.406;2023-04-24T01:24:38;13.50;99.90
3408;DHT22;1717;50.240;8.406;2023-04-24T01:27:05;13.50;99.90
3408;DHT22;1717;50.240;8.406;2023-04-24T01:29:33;13.50;99.90
3408;DHT22;1717;50.240;8.406;2023-04-24T01:32:00;13.50;99.90
3408;DHT22;1717;50.240;8.406;2023-04-24T01:34:27;13.50;99.90
3408;DHT22;1717;50.240;8.406;2023-04-24T01:36:54;13.50;99.90
3408;DHT22;1717;50.240;8.406;2023-04-24T01:39:23;13.50;99.90
3408;DHT22;1717;50.240;8.406;2023-04-24T01:41:51;13.50;99.90
3408;DHT22;1717;50.240;8.406;2023-04-24T01:44:19;13.50;99.90
3408;DHT22;1717;50.240;8.406;2023-04-24T01:46:46;13.40;99.90
3408;DHT22;1717;50.240;8.406;2023-04-24T01:49:13;13.40;99.90
3408;DHT22;1717;50.240;8.406;2023-04-24T01:51:39;13.40;99.90
3408;DHT22;1717;50.240;8.406;2023-04-24T01:54:06;13.40;99.90
3408;DHT22;1717;50.240;8.406;2023-04-24T01:56:35;13.40;99.90
3408;DHT22;1717;50.240;8.406;2023-04-24T01:59:03;13.40;99.90
3408;DHT22;1717;50.240;8.406;2023-04-24T02:01:33;13.40;99.90
3408;DHT22;1717;50.240;8.406;2023-04-24T02:04:01;13.40;99.90
3408;DHT22;1717;50.240;8.406;2023-04-24T02:06:28;13.40;99.90
3408;DHT22;1717;50.240;8.406;2023-04-24T02:08:57;13.40;99.90
3408;DHT22;1717;50.240;8.406;2023-04-24T02:11:24;13.30;99.90
3408;DHT22;1717;50.240;8.406;2023-04-24T02:13:52;13.30;99.90
3408;DHT22;1717;50.240;8.406;2023-04-24T02:16:19;13.30;99.90
3408;DHT22;1717;50.240;8.406;2023-04-24T02:18:46;13.20;99.90
3408;DHT22;1717;50.240;8.406;2023-04-24T02:21:13;13.30;99.90
3408;DHT22;1717;50.240;8.406;2023-04-24T02:23:40;13.20;99.90
3408;DHT22;1717;50.240;8.406;2023-04-24T02:26:07;13.20;99.90
3408;DHT22;1717;50.240;8.406;2023-04-24T02:28:34;13.20;99.90
3408;DHT22;1717;50.240;8.406;2023-04-24T02:31:02;13.10;99.90
3408;DHT22;1717;50.240;8.406;2023-04-24T02:33:29;13.10;99.90
3408;DHT22;1717;50.240;8.406;2023-04-24T02:35:55;13.20;99.90
3408;DHT22;1717;50.240;8.406;2023-04-24T02:38:22;13.20;99.90
3408;DHT22;1717;50.240;8.406;2023-04-24T02:40:49;13.20;99.90
3408;DHT22;1717;50.240;8.406;2023-04-24T02:43:16;13.20;99.90
3408;DHT22;1717;50.240;8.406;2023-04-24T02:45:43;13.20;99.90
3408;DHT22;1717;50.240;8.406;2023-04-24T02:48:11;13.10;99.90
3408;DHT22;1717;50.240;8.406;2023-04-24T02:50:38;13.10;99.90
3408;DHT22;1717;50.240;8.406;2023-04-24T02:53:05;13.10;99.90
3408;DHT22;1717;50.240;8.406;2023-04-24T02:55:32;13.00;99.90
3408;DHT22;1717;50.240;8.406;2023-04-24T02:57:58;13.10;99.90
3408;DHT22;1717;50.240;8.406;2023-04-24T03:00:25;13.10;99.90
3408;DHT22;1717;50.240;8.406;2023-04-24T03:02:52;13.00;99.90
3408;DHT22;1717;50.240;8.406;2023-04-24T03:05:20;13.00;99.90
3408;DHT22;1717;50.240;8.406;2023-04-24T03:07:47;13.00;99.90
3408;DHT22;1717;50.240;8.406;2023-04-24T03:10:14;12.90;99.90
3408;DHT22;1717;50.240;8.406;2023-04-24T03:12:41;12.90;99.90
3408;DHT22;1717;50.240;8.406;2023-04-24T03:15:09;12.90;99.90
3408;DHT22;1717;50.240;8.406;2023-04-24T03:17:35;12.90;99.90
3408;DHT22;1717;50.240;8.406;2023-04-24T03:20:03;12.90;99.90
3408;DHT22;1717;50.240;8.406;2023-04-24T03:22:33;12.90;99.90
3408;DHT22;1717;50.240;8.406;2023-04-24T03:25:00;12.90;99.90
3408;DHT22;1717;50.240;8.406;2023-04-24T03:27:26;12.90;99.90
3408;DHT22;1717;50.240;8.406;2023-04-24T03:29:53;12.80;99.90
3408;DHT22;1717;50.240;8.406;2023-04-24T03:32:20;12.80;99.90
3408;DHT22;1717;50.240;8.406;2023-04-24T03:34:47;12.80;99.90
3408;DHT22;1717;50.240;8.406;2023-04-24T03:37:16;12.80;99.90
3408;DHT22;1717;50.240;8.406;2023-04-24T03:39:44;12.70;99.90
3408;DHT22;1717;50.240;8.406;2023-04-24T03:42:11;12.80;99.90
3408;DHT22;1717;50.240;8.406;2023-04-24T03:44:38;12.60;99.90
3408;DHT22;1717;50.240;8.406;2023-04-24T03:47:05;12.70;99.90
3408;DHT22;1717;50.240;8.406;2023-04-24T03:49:32;12.70;99.90
3408;DHT22;1717;50.240;8.406;2023-04-24T03:51:58;12.70;99.90
3408;DHT22;1717;50.240;8.406;2023-04-24T03:54:26;12.70;99.90
3408;DHT22;1717;50.240;8.406;2023-04-24T03:56:54;12.60;99.90
3408;DHT22;1717;50.240;8.406;2023-04-24T03:59:21;12.60;99.90
3408;DHT22;1717;50.240;8.406;2023-04-24T04:01:48;12.50;99.90
3408;DHT22;1717;50.240;8.406;2023-04-24T04:04:15;12.70;99.90
3408;DHT22;1717;50.240;8.406;2023-04-24T04:06:42;12.40;99.90
3408;DHT22;1717;50.240;8.406;2023-04-24T04:09:09;12.40;99.90
3408;DHT22;1717;50.240;8.406;2023-04-24T04:11:36;12.60;99.90
3408;DHT22;1717;50.240;8.406;2023-04-24T04:14:05;12.40;99.90
3408;DHT22;1717;50.240;8.406;2023-04-24T04:16:31;12.30;99.90
3408;DHT22;1717;50.240;8.406;2023-04-24T04:18:58;12.30;99.90
3408;DHT22;1717;50.240;8.406;2023-04-24T04:21:25;12.30;99.90
3408;DHT22;1717;50.240;8.406;2023-04-24T04:23:53;12.20;99.90
3408;DHT22;1717;50.240;8.406;2023-04-24T04:26:20;12.20;99.90
3408;DHT22;1717;50.240;8.406;2023-04-24T04:28:51;12.20;99.90
3408;DHT22;1717;50.240;8.406;2023-04-24T04:31:19;12.10;99.90
3408;DHT22;1717;50.240;8.406;2023-04-24T04:33:46;12.10;99.90
3408;DHT22;1717;50.240;8.406;2023-04-24T04:36:13;12.10;99.90
3408;DHT22;1717;50.240;8.406;2023-04-24T04:38:40;12.20;99.90
3408;DHT22;1717;50.240;8.406;2023-04-24T04:41:08;12.20;99.90
3408;DHT22;1717;50.240;8.406;2023-04-24T04:43:35;12.10;99.90
3408;DHT22;1717;50.240;8.406;2023-04-24T04:46:02;12.10;99.90
3408;DHT22;1717;50.240;8.406;2023-04-24T04:48:31;12.10;99.90
3408;DHT22;1717;50.240;8.406;2023-04-24T04:50:58;12.10;99.90
3408;DHT22;1717;50.240;8.406;2023-04-24T04:53:24;12.00;99.90
3408;DHT22;1717;50.240;8.406;2023-04-24T04:55:51;12.00;99.90
3408;DHT22;1717;50.240;8.406;2023-04-24T04:58:18;11.90;99.90
3408;DHT22;1717;50.240;8.406;2023-04-24T05:00:45;11.90;99.90
3408;DHT22;1717;50.240;8.406;2023-04-24T05:03:12;11.70;99.90
3408;DHT22;1717;50.240;8.406;2023-04-24T05:05:40;11.60;99.90
3408;DHT22;1717;50.240;8.406;2023-04-24T05:08:07;11.70;99.90
3408;DHT22;1717;50.240;8.406;2023-04-24T05:10:34;11.60;99.90
3408;DHT22;1717;50.240;8.406;2023-04-24T05:13:02;11.60;99.90
3408;DHT22;1717;50.240;8.406;2023-04-24T05:15:29;11.50;99.90
3408;DHT22;1717;50.240;8.406;2023-04-24T05:17:56;11.50;99.90
3408;DHT22;1717;50.240;8.406;2023-04-24T05:20:23;11.40;99.90
3408;DHT22;1717;50.240;8.406;2023-04-24T05:22:51;11.40;99.90
3408;DHT22;1717;50.240;8.406;2023-04-24T05:25:18;11.30;99.90
3408;DHT22;1717;50.240;8.406;2023-04-24T05:27:45;11.20;99.90
3408;DHT22;1717;50.240;8.406;2023-04-24T05:30:12;11.10;99.90
3408;DHT22;1717;50.240;8.406;2023-04-24T05:32:39;11.20;99.90
3408;DHT22;1717;50.240;8.406;2023-04-24T05:35:07;11.20;99.90
3408;DHT22;1717;50.240;8.406;2023-04-24T05:37:33;11.10;99.90
3408;DHT22;1717;50.240;8.406;2023-04-24T05:40:02;11.10;99.90
3408;DHT22;1717;50.240;8.406;2023-04-24T05:42:30;11.10;99.90
3408;DHT22;1717;50.240;8.406;2023-04-24T05:44:57;11.10;99.90
3408;DHT22;1717;50.240;8.406;2023-04-24T05:47:24;11.10;99.90
3408;DHT22;1717;50.240;8.406;2023-04-24T05:49:52;11.10;99.90
3408;DHT22;1717;50.240;8.406;2023-04-24T05:52:18;11.00;99.90
3408;DHT22;1717;50.240;8.406;2023-04-24T05:54:45;11.00;99.90
3408;DHT22;1717;50.240;8.406;2023-04-24T05:57:13;11.10;99.90
3408;DHT22;1717;50.240;8.406;2023-04-24T05:59:41;11.00;99.90
3408;DHT22;1717;50.240;8.406;2023-04-24T06:02:07;11.00;99.90
3408;DHT22;1717;50.240;8.406;2023-04-24T06:04:34;11.00;99.90
3408;DHT22;1717;50.240;8.406;2023-04-24T06:07:01;11.00;99.90
3408;DHT22;1717;50.240;8.406;2023-04-24T06:09:28;11.00;99.90
3408;DHT22;1717;50.240;8.406;2023-04-24T06:11:55;11.20;99.90
3408;DHT22;1717;50.240;8.406;2023-04-24T06:14:24;11.00;99.90
3408;DHT22;1717;50.240;8.406;2023-04-24T06:16:51;11.00;99.90
3408;DHT22;1717;50.240;8.406;2023-04-24T06:19:17;11.00;99.90
3408;DHT22;1717;50.240;8.406;2023-04-24T06:21:44;11.00;99.90
3408;DHT22;1717;50.240;8.406;2023-04-24T06:24:14;11.00;99.90
3408;DHT22;1717;50.240;8.406;2023-04-24T06:26:41;11.00;99.90
3408;DHT22;1717;50.240;8.406;2023-04-24T06:29:08;11.10;99.90
3408;DHT22;1717;50.240;8.406;2023-04-24T06:31:36;11.20;99.90
3408;DHT22;1717;50.240;8.406;2023-04-24T06:34:03;11.20;99.90
3408;DHT22;1717;50.240;8.406;2023-04-24T06:36:31;11.20;99.90
3408;DHT22;1717;50.240;8.406;2023-04-24T06:39:00;11.30;99.90
3408;DHT22;1717;50.240;8.406;2023-04-24T06:41:27;11.30;99.90
3408;DHT22;1717;50.240;8.406;2023-04-24T06:43:54;11.30;99.90
3408;DHT22;1717;50.240;8.406;2023-04-24T06:46:21;11.50;99.90
3408;DHT22;1717;50.240;8.406;2023-04-24T06:48:53;11.50;99.90
3408;DHT22;1717;50.240;8.406;2023-04-24T06:51:22;11.60;99.90
3408;DHT22;1717;50.240;8.406;2023-04-24T06:53:50;11.70;99.90
3408;DHT22;1717;50.240;8.406;2023-04-24T06:56:17;11.70;99.90
3408;DHT22;1717;50.240;8.406;2023-04-24T06:58:44;11.80;99.90
3408;DHT22;1717;50.240;8.406;2023-04-24T07:01:14;11.80;99.90
3408;DHT22;1717;50.240;8.406;2023-04-24T07:03:41;11.90;99.90
3408;DHT22;1717;50.240;8.406;2023-04-24T07:06:09;11.90;99.90
3408;DHT22;1717;50.240;8.406;2023-04-24T07:08:36;12.00;99.90
3408;DHT22;1717;50.240;8.406;2023-04-24T07:11:03;11.90;99.90
3408;DHT22;1717;50.240;8.406;2023-04-24T07:13:31;12.20;99.90
3408;DHT22;1717;50.240;8.406;2023-04-24T07:15:58;12.20;99.90
3408;DHT22;1717;50.240;8.406;2023-04-24T07:18:25;12.30;99.90
3408;DHT22;1717;50.240;8.406;2023-04-24T07:20:51;12.40;99.90
3408;DHT22;1717;50.240;8.406;2023-04-24T07:23:20;12.40;99.90
3408;DHT22;1717;50.240;8.406;2023-04-24T07:25:46;12.40;99.90
3408;DHT22;1717;50.240;8.406;2023-04-24T07:28:13;12.50;99.90
3408;DHT22;1717;50.240;8.406;2023-04-24T07:30:41;12.50;99.90
3408;DHT22;1717;50.240;8.406;2023-04-24T07:33:07;12.60;99.90
3408;DHT22;1717;50.240;8.406;2023-04-24T07:35:36;12.60;99.90
3408;DHT22;1717;50.240;8.406;2023-04-24T07:38:03;12.60;99.90
3408;DHT22;1717;50.240;8.406;2023-04-24T07:40:31;12.70;99.90
3408;DHT22;1717;50.240;8.406;2023-04-24T07:42:59;12.70;99.90
3408;DHT22;1717;50.240;8.406;2023-04-24T07:45:25;12.80;99.90
3408;DHT22;1717;50.240;8.406;2023-04-24T07:47:53;12.70;99.90
3408;DHT22;1717;50.240;8.406;2023-04-24T07:50:20;12.80;99.90
3408;DHT22;1717;50.240;8.406;2023-04-24T07:52:48;12.80;99.90
3408;DHT22;1717;50.240;8.406;2023-04-24T07:55:15;12.90;99.90
3408;DHT22;1717;50.240;8.406;2023-04-24T07:57:43;12.90;99.90
3408;DHT22;1717;50.240;8.406;2023-04-24T08:00:11;13.00;99.90
3408;DHT22;1717;50.240;8.406;2023-04-24T08:02:38;13.00;99.90
3408;DHT22;1717;50.240;8.406;2023-04-24T08:05:06;13.00;99.90
3408;DHT22;1717;50.240;8.406;2023-04-24T08:07:33;13.00;99.90
3408;DHT22;1717;50.240;8.406;2023-04-24T08:10:00;13.10;99.90
3408;DHT22;1717;50.240;8.406;2023-04-24T08:12:28;13.10;99.90
3408;DHT22;1717;50.240;8.406;2023-04-24T08:14:56;13.10;99.90
3408;DHT22;1717;50.240;8.406;2023-04-24T08:17:24;13.10;99.90
3408;DHT22;1717;50.240;8.406;2023-04-24T08:19:51;13.20;99.90
3408;DHT22;1717;50.240;8.406;2023-04-24T08:22:19;13.30;99.90
3408;DHT22;1717;50.240;8.406;2023-04-24T08:24:46;13.40;99.90
3408;DHT22;1717;50.240;8.406;2023-04-24T08:27:12;13.40;99.90
3408;DHT22;1717;50.240;8.406;2023-04-24T08:29:39;13.40;99.90
3408;DHT22;1717;50.240;8.406;2023-04-24T08:32:08;13.40;99.90
3408;DHT22;1717;50.240;8.406;2023-04-24T08:34:35;13.50;99.90
3408;DHT22;1717;50.240;8.406;2023-04-24T08:37:02;13.40;99.90
3408;DHT22;1717;50.240;8.406;2023-04-24T08:39:29;13.40;99.90
3408;DHT22;1717;50.240;8.406;2023-04-24T08:41:56;13.40;99.90
3408;DHT22;1717;50.240;8.406;2023-04-24T08:44:31;13.40;99.90
3408;DHT22;1717;50.240;8.406;2023-04-24T08:46:58;13.40;99.90
3408;DHT22;1717;50.240;8.406;2023-04-24T08:49:27;13.30;99.90
3408;DHT22;1717;50.240;8.406;2023-04-24T08:51:55;13.40;99.90
3408;DHT22;1717;50.240;8.406;2023-04-24T08:54:21;13.30;99.90
3408;DHT22;1717;50.240;8.406;2023-04-24T08:56:49;13.20;99.90
3408;DHT22;1717;50.240;8.406;2023-04-24T08:59:16;13.20;99.90
3408;DHT22;1717;50.240;8.406;2023-04-24T09:01:45;13.20;99.90
3408;DHT22;1717;50.240;8.406;2023-04-24T09:04:14;13.20;99.90
3408;DHT22;1717;50.240;8.406;2023-04-24T09:06:44;13.10;99.90
3408;DHT22;1717;50.240;8.406;2023-04-24T09:09:12;13.10;99.90
3408;DHT22;1717;50.240;8.406;2023-04-24T09:11:39;13.00;99.90
3408;DHT22;1717;50.240;8.406;2023-04-24T09:14:06;13.00;99.90
3408;DHT22;1717;50.240;8.406;2023-04-24T09:16:36;13.00;99.90
3408;DHT22;1717;50.240;8.406;2023-04-24T09:19:03;13.00;99.90
3408;DHT22;1717;50.240;8.406;2023-04-24T09:21:32;13.00;99.90
3408;DHT22;1717;50.240;8.406;2023-04-24T09:24:01;13.00;99.90
3408;DHT22;1717;50.240;8.406;2023-04-24T09:26:29;12.90;99.90
3408;DHT22;1717;50.240;8.406;2023-04-24T09:28:58;12.90;99.90
3408;DHT22;1717;50.240;8.406;2023-04-24T09:31:28;13.00;99.90
3408;DHT22;1717;50.240;8.406;2023-04-24T09:33:57;13.00;99.90
3408;DHT22;1717;50.240;8.406;2023-04-24T09:36:27;13.00;99.90
3408;DHT22;1717;50.240;8.406;2023-04-24T09:38:58;12.90;99.90
3408;DHT22;1717;50.240;8.406;2023-04-24T09:41:27;12.90;99.90
3408;DHT22;1717;50.240;8.406;2023-04-24T09:43:55;12.90;99.90
3408;DHT22;1717;50.240;8.406;2023-04-24T09:46:29;12.90;99.90
3408;DHT22;1717;50.240;8.406;2023-04-24T09:48:57;12.90;99.90
3408;DHT22;1717;50.240;8.406;2023-04-24T09:51:34;12.90;99.90
3408;DHT22;1717;50.240;8.406;2023-04-24T09:54:02;12.90;99.90
3408;DHT22;1717;50.240;8.406;2023-04-24T09:56:32;12.90;99.90
3408;DHT22;1717;50.240;8.406;2023-04-24T09:59:04;12.90;99.90
3408;DHT22;1717;50.240;8.406;2023-04-24T10:01:31;12.90;99.90
3408;DHT22;1717;50.240;8.406;2023-04-24T10:03:59;12.90;99.90
3408;DHT22;1717;50.240;8.406;2023-04-24T10:06:32;12.90;99.90
3408;DHT22;1717;50.240;8.406;2023-04-24T10:08:59;12.90;99.90
3408;DHT22;1717;50.240;8.406;2023-04-24T10:11:27;12.90;99.90
3408;DHT22;1717;50.240;8.406;2023-04-24T10:13:55;12.90;99.90
3408;DHT22;1717;50.240;8.406;2023-04-24T10:16:24;12.90;99.90
3408;DHT22;1717;50.240;8.406;2023-04-24T10:18:52;12.90;99.90
3408;DHT22;1717;50.240;8.406;2023-04-24T10:21:20;12.90;99.90
3408;DHT22;1717;50.240;8.406;2023-04-24T10:23:48;12.90;99.90
3408;DHT22;1717;50.240;8.406;2023-04-24T10:26:16;13.00;99.90
3408;DHT22;1717;50.240;8.406;2023-04-24T10:28:45;13.00;99.90
3408;DHT22;1717;50.240;8.406;2023-04-24T10:31:13;12.90;99.90
3408;DHT22;1717;50.240;8.406;2023-04-24T10:33:41;12.90;99.90
3408;DHT22;1717;50.240;8.406;2023-04-24T10:36:10;12.90;99.90
3408;DHT22;1717;50.240;8.406;2023-04-24T10:38:38;12.90;99.90
3408;DHT22;1717;50.240;8.406;2023-04-24T10:41:08;13.00;99.90
3408;DHT22;1717;50.240;8.406;2023-04-24T10:43:36;13.00;99.90
3408;DHT22;1717;50.240;8.406;2023-04-24T10:46:04;13.00;99.90
3408;DHT22;1717;50.240;8.406;2023-04-24T10:48:33;13.00;99.90
3408;DHT22;1717;50.240;8.406;2023-04-24T10:51:01;13.10;99.90
3408;DHT22;1717;50.240;8.406;2023-04-24T10:53:29;13.10;99.90
3408;DHT22;1717;50.240;8.406;2023-04-24T10:56:03;13.10;99.90
3408;DHT22;1717;50.240;8.406;2023-04-24T10:58:38;13.00;99.90
3408;DHT22;1717;50.240;8.406;2023-04-24T11:01:06;13.00;99.90
3408;DHT22;1717;50.240;8.406;2023-04-24T11:03:35;13.00;99.90
3408;DHT22;1717;50.240;8.406;2023-04-24T11:06:04;13.00;99.90
3408;DHT22;1717;50.240;8.406;2023-04-24T11:08:36;13.00;99.90
3408;DHT22;1717;50.240;8.406;2023-04-24T11:11:08;12.80;99.90
3408;DHT22;1717;50.240;8.406;2023-04-24T11:14:01;12.90;99.90
3408;DHT22;1717;50.240;8.406;2023-04-24T11:16:29;12.90;99.90
3408;DHT22;1717;50.240;8.406;2023-04-24T11:19:03;12.90;99.90
3408;DHT22;1717;50.240;8.406;2023-04-24T11:21:40;12.80;99.90
3408;DHT22;1717;50.240;8.406;2023-04-24T11:24:28;12.90;99.90
3408;DHT22;1717;50.240;8.406;2023-04-24T11:26:57;12.90;99.90
3408;DHT22;1717;50.240;8.406;2023-04-24T11:29:39;12.90;99.90
3408;DHT22;1717;50.240;8.406;2023-04-24T11:32:33;12.90;99.90
3408;DHT22;1717;50.240;8.406;2023-04-24T11:35:04;12.80;99.90
3408;DHT22;1717;50.240;8.406;2023-04-24T11:37:35;12.80;99.90
3408;DHT22;1717;50.240;8.406;2023-04-24T11:40:04;12.80;99.90
3408;DHT22;1717;50.240;8.406;2023-04-24T11:42:34;12.80;99.90
3408;DHT22;1717;50.240;8.406;2023-04-24T11:45:01;12.80;99.90
3408;DHT22;1717;50.240;8.406;2023-04-24T11:47:29;12.70;99.90
3408;DHT22;1717;50.240;8.406;2023-04-24T11:49:57;12.60;99.90
3408;DHT22;1717;50.240;8.406;2023-04-24T11:52:25;12.60;99.90
3408;DHT22;1717;50.240;8.406;2023-04-24T11:54:52;12.60;99.90
3408;DHT22;1717;50.240;8.406;2023-04-24T11:57:20;12.60;99.90
3408;DHT22;1717;50.240;8.406;2023-04-24T11:59:48;12.60;99.90
3408;DHT22;1717;50.240;8.406;2023-04-24T12:02:22;12.70;99.90
3408;DHT22;1717;50.240;8.406;2023-04-24T12:04:49;12.70;99.90
3408;DHT22;1717;50.240;8.406;2023-04-24T12:07:16;12.70;99.90
3408;DHT22;1717;50.240;8.406;2023-04-24T12:09:46;12.80;99.90
3408;DHT22;1717;50.240;8.406;2023-04-24T12:12:14;12.80;99.90
3408;DHT22;1717;50.240;8.406;2023-04-24T12:14:45;12.90;99.90
3408;DHT22;1717;50.240;8.406;2023-04-24T12:17:12;13.00;99.90
3408;DHT22;1717;50.240;8.406;2023-04-24T12:19:45;13.20;99.90
3408;DHT22;1717;50.240;8.406;2023-04-24T12:22:12;13.30;99.90
3408;DHT22;1717;50.240;8.406;2023-04-24T12:25:02;13.50;99.90
3408;DHT22;1717;50.240;8.406;2023-04-24T12:27:30;13.60;99.90
3408;DHT22;1717;50.240;8.406;2023-04-24T12:29:59;13.70;99.90
3408;DHT22;1717;50.240;8.406;2023-04-24T12:32:26;13.70;99.90
3408;DHT22;1717;50.240;8.406;2023-04-24T12:34:54;13.80;99.90
3408;DHT22;1717;50.240;8.406;2023-04-24T12:37:23;13.90;99.90
3408;DHT22;1717;50.240;8.406;2023-04-24T12:40:02;14.00;99.90
3408;DHT22;1717;50.240;8.406;2023-04-24T12:42:30;14.10;99.90
3408;DHT22;1717;50.240;8.406;2023-04-24T12:44:58;14.20;99.90
3408;DHT22;1717;50.240;8.406;2023-04-24T12:47:26;14.20;99.90
3408;DHT22;1717;50.240;8.406;2023-04-24T12:49:53;14.20;99.90
3408;DHT22;1717;50.240;8.406;2023-04-24T12:52:21;14.20;99.90
3408;DHT22;1717;50.240;8.406;2023-04-24T12:54:49;14.20;99.90
3408;DHT22;1717;50.240;8.406;2023-04-24T12:57:18;14.20;99.90
3408;DHT22;1717;50.240;8.406;2023-04-24T12:59:45;14.20;99.90
3408;DHT22;1717;50.240;8.406;2023-04-24T13:02:12;14.30;99.90
3408;DHT22;1717;50.240;8.406;2023-04-24T13:04:39;14.30;99.90
3408;DHT22;1717;50.240;8.406;2023-04-24T13:07:06;14.30;99.90
3408;DHT22;1717;50.240;8.406;2023-04-24T13:09:34;14.40;99.90
3408;DHT22;1717;50.240;8.406;2023-04-24T13:12:02;14.40;99.90
3408;DHT22;1717;50.240;8.406;2023-04-24T13:14:32;14.40;99.90
3408;DHT22;1717;50.240;8.406;2023-04-24T13:16:59;14.40;99.90
3408;DHT22;1717;50.240;8.406;2023-04-24T13:19:26;14.40;99.90
3408;DHT22;1717;50.240;8.406;2023-04-24T13:21:55;14.40;99.90
3408;DHT22;1717;50.240;8.406;2023-04-24T13:24:23;14.30;99.90
3408;DHT22;1717;50.240;8.406;2023-04-24T13:26:50;14.20;99.90
3408;DHT22;1717;50.240;8.406;2023-04-24T13:29:17;14.10;99.90
3408;DHT22;1717;50.240;8.406;2023-04-24T13:31:46;14.00;99.90
3408;DHT22;1717;50.240;8.406;2023-04-24T13:34:12;14.00;99.90
3408;DHT22;1717;50.240;8.406;2023-04-24T13:36:39;14.00;99.90
3408;DHT22;1717;50.240;8.406;2023-04-24T13:39:06;13.90;99.90
3408;DHT22;1717;50.240;8.406;2023-04-24T13:41:33;13.80;99.90
3408;DHT22;1717;50.240;8.406;2023-04-24T13:44:01;13.80;99.90
3408;DHT22;1717;50.240;8.406;2023-04-24T13:46:27;13.80;99.90
3408;DHT22;1717;50.240;8.406;2023-04-24T13:48:56;13.80;99.90
3408;DHT22;1717;50.240;8.406;2023-04-24T13:51:24;13.80;99.90
3408;DHT22;1717;50.240;8.406;2023-04-24T13:53:52;13.80;99.90
3408;DHT22;1717;50.240;8.406;2023-04-24T13:56:19;13.90;99.90
3408;DHT22;1717;50.240;8.406;2023-04-24T13:58:46;13.80;99.90
3408;DHT22;1717;50.240;8.406;2023-04-24T14:01:14;13.90;99.90
3408;DHT22;1717;50.240;8.406;2023-04-24T14:03:41;13.90;99.90
3408;DHT22;1717;50.240;8.406;2023-04-24T14:06:10;13.90;99.90
3408;DHT22;1717;50.240;8.406;2023-04-24T14:08:36;13.90;99.90
3408;DHT22;1717;50.240;8.406;2023-04-24T14:11:04;13.90;99.90
3408;DHT22;1717;50.240;8.406;2023-04-24T14:13:31;13.90;99.90
3408;DHT22;1717;50.240;8.406;2023-04-24T14:15:58;14.00;99.90
3408;DHT22;1717;50.240;8.406;2023-04-24T14:18:25;14.00;99.90
3408;DHT22;1717;50.240;8.406;2023-04-24T14:20:52;13.90;99.90
3408;DHT22;1717;50.240;8.406;2023-04-24T14:23:21;13.90;99.90
3408;DHT22;1717;50.240;8.406;2023-04-24T14:25:47;13.90;99.90
3408;DHT22;1717;50.240;8.406;2023-04-24T14:28:17;13.80;99.90
3408;DHT22;1717;50.240;8.406;2023-04-24T14:30:44;13.70;99.90
3408;DHT22;1717;50.240;8.406;2023-04-24T14:33:11;13.70;99.90
3408;DHT22;1717;50.240;8.406;2023-04-24T14:35:38;13.70;99.90
3408;DHT22;1717;50.240;8.406;2023-04-24T14:38:05;13.60;99.90
3408;DHT22;1717;50.240;8.406;2023-04-24T14:40:34;13.60;99.90
3408;DHT22;1717;50.240;8.406;2023-04-24T14:43:01;13.60;99.90
3408;DHT22;1717;50.240;8.406;2023-04-24T14:45:29;13.60;99.90
3408;DHT22;1717;50.240;8.406;2023-04-24T14:47:56;13.60;99.90
3408;DHT22;1717;50.240;8.406;2023-04-24T14:50:23;13.60;99.90
3408;DHT22;1717;50.240;8.406;2023-04-24T14:52:53;13.60;99.90
3408;DHT22;1717;50.240;8.406;2023-04-24T14:55:20;13.70;99.90
3408;DHT22;1717;50.240;8.406;2023-04-24T14:57:48;13.70;99.90
3408;DHT22;1717;50.240;8.406;2023-04-24T15:00:16;13.70;99.90
3408;DHT22;1717;50.240;8.406;2023-04-24T15:02:43;13.70;99.90
3408;DHT22;1717;50.240;8.406;2023-04-24T15:05:10;13.70;99.80
3408;DHT22;1717;50.240;8.406;2023-04-24T15:07:37;13.70;99.70
3408;DHT22;1717;50.240;8.406;2023-04-24T15:10:05;13.70;99.70
3408;DHT22;1717;50.240;8.406;2023-04-24T15:12:32;13.70;99.60
3408;DHT22;1717;50.240;8.406;2023-04-24T15:15:00;13.80;99.90
3408;DHT22;1717;50.240;8.406;2023-04-24T15:17:27;13.80;99.80
3408;DHT22;1717;50.240;8.406;2023-04-24T15:19:54;13.80;99.90
3408;DHT22;1717;50.240;8.406;2023-04-24T15:22:21;13.80;99.50
3408;DHT22;1717;50.240;8.406;2023-04-24T15:24:48;13.80;99.20
3408;DHT22;1717;50.240;8.406;2023-04-24T15:27:15;13.90;99.40
3408;DHT22;1717;50.240;8.406;2023-04-24T15:29:41;13.70;99.30
3408;DHT22;1717;50.240;8.406;2023-04-24T15:32:10;13.70;99.70
3408;DHT22;1717;50.240;8.406;2023-04-24T15:34:37;13.70;99.60
3408;DHT22;1717;50.240;8.406;2023-04-24T15:37:04;13.70;99.90
3408;DHT22;1717;50.240;8.406;2023-04-24T15:39:31;13.70;99.70
3408;DHT22;1717;50.240;8.406;2023-04-24T15:41:58;13.70;99.40
3408;DHT22;1717;50.240;8.406;2023-04-24T15:44:25;13.80;99.60
3408;DHT22;1717;50.240;8.406;2023-04-24T15:46:52;13.80;99.30
3408;DHT22;1717;50.240;8.406;2023-04-24T15:49:20;13.80;99.10
3408;DHT22;1717;50.240;8.406;2023-04-24T15:51:47;13.90;98.90
3408;DHT22;1717;50.240;8.406;2023-04-24T15:54:14;13.90;98.20
3408;DHT22;1717;50.240;8.406;2023-04-24T15:56:41;14.00;97.00
3408;DHT22;1717;50.240;8.406;2023-04-24T15:59:09;14.00;96.60
3408;DHT22;1717;50.240;8.406;2023-04-24T16:01:36;14.00;96.30
3408;DHT22;1717;50.240;8.406;2023-04-24T16:04:03;14.00;96.40
3408;DHT22;1717;50.240;8.406;2023-04-24T16:06:31;14.00;96.30